Terminal Aerodrome Forecast
Issued by NWS

Current Version | Previous Version | Text Only | Print | Product List | Glossary On
Versions: 1 2 3 4 5 6 7 8 9 10 11 12 13 14 15 16
000
FTUS46 KSEW 232105 AAA
TAFBFI
TAF AMD
KBFI 232105Z 2321/2418 VRB05KT P6SM SCT030 BKN250
     FM240400 18004KT P6SM SCT030 BKN120 BKN250
     FM241000 17006KT P6SM OVC017=

USA.gov is the U.S. government's official web portal to all federal, state and local government web resources and services.